Time;durP1;ratioP1;P1;durP2;ratioP2;P2;SDS_P1;SDS_P2;PMS_P1;PMS_P2;Temp;Humidity;BMP_temperature;BMP_pressure;BME280_temperature;BME280_humidity;BME280_pressure;Samples;Min_cycle;Max_cycle;Signal;HPM_P1;HPM_P2
2023/09/19 00:02:59;;;;;;;26.50;19.53;;;;;;;;;;5054197;28;20205;-70
2023/09/19 00:05:27;;;;;;;23.63;20.37;;;;;;;;;;5037319;28;20664;-70
2023/09/19 00:08:13;;;;;;;22.80;19.73;;;;;;;;;;5055022;28;20155;-70
2023/09/19 00:10:41;;;;;;;22.43;18.67;;;;;;;;;;5054122;28;20190;-70
2023/09/19 00:13:26;;;;;;;20.67;18.53;;;;;;;;;;5053948;28;20541;-70
2023/09/19 00:15:55;;;;;;;26.37;19.27;;;;;;;;;;5036360;28;20285;-69
2023/09/19 00:18:42;;;;;;;22.87;19.77;;;;;;;;;;5035847;28;20190;-70
2023/09/19 00:21:10;;;;;;;21.63;19.33;;;;;;;;;;5053807;28;20214;-70
2023/09/19 00:23:55;;;;;;;24.23;20.90;;;;;;;;;;5054448;28;20169;-70
2023/09/19 00:26:21;;;;;;;23.57;21.03;;;;;;;;;;5036734;28;20236;-70
2023/09/19 00:32:48;;;;;;;21.63;19.43;;;;;;;;;;5053790;28;20241;-70
2023/09/19 00:35:15;;;;;;;22.93;20.43;;;;;;;;;;5036600;28;20514;-70
2023/09/19 00:37:42;;;;;;;22.60;20.20;;;;;;;;;;5054463;28;20190;-70
2023/09/19 00:40:11;;;;;;;21.90;19.30;;;;;;;;;;5052571;28;20229;-70
2023/09/19 00:42:39;;;;;;;21.40;19.30;;;;;;;;;;5053489;28;20179;-71
2023/09/19 00:45:06;;;;;;;23.73;21.00;;;;;;;;;;5036908;28;20213;-71
2023/09/19 00:47:33;;;;;;;22.23;19.83;;;;;;;;;;5054084;28;20273;-71
2023/09/19 00:50:19;;;;;;;23.33;20.83;;;;;;;;;;5036088;28;20171;-71
2023/09/19 00:52:50;;;;;;;29.80;22.23;;;;;;;;;;5053569;28;20186;-71
2023/09/19 00:55:19;;;;;;;23.20;20.80;;;;;;;;;;5053430;28;20187;-70
2023/09/19 00:57:47;;;;;;;24.23;21.30;;;;;;;;;;5053899;28;20594;-71
2023/09/19 01:00:15;;;;;;;23.93;21.20;;;;;;;;;;5041568;28;20187;-71
2023/09/19 01:03:01;;;;;;;24.10;20.97;;;;;;;;;;5042445;28;20187;-71
2023/09/19 01:05:29;;;;;;;23.67;20.93;;;;;;;;;;5042848;28;20187;-71
2023/09/19 01:08:13;;;;;;;22.83;20.43;;;;;;;;;;5060508;28;20214;-71
2023/09/19 01:46:08;;;;;;;26.87;22.33;;;;;;;;;;5062806;28;20251;-71
2023/09/19 01:48:40;;;;;;;25.90;22.67;;;;;;;;;;5062043;28;20185;-71
2023/09/19 01:51:07;;;;;;;25.20;22.50;;;;;;;;;;5080538;28;20182;-71
2023/09/19 01:53:43;;;;;;;24.60;21.97;;;;;;;;;;5061926;28;20247;-71
2023/09/19 01:56:12;;;;;;;24.33;20.90;;;;;;;;;;5062446;28;20249;-71
2023/09/19 01:58:45;;;;;;;23.50;21.00;;;;;;;;;;5061855;28;20637;-71
2023/09/19 02:01:13;;;;;;;24.33;20.43;;;;;;;;;;5061724;28;20255;-70
2023/09/19 02:03:40;;;;;;;24.63;18.80;;;;;;;;;;5079906;28;20239;-71
2023/09/19 02:06:11;;;;;;;21.40;19.10;;;;;;;;;;5061699;28;20668;-71
2023/09/19 02:08:55;;;;;;;21.97;19.43;;;;;;;;;;5062125;28;20252;-71
2023/09/19 02:15:22;;;;;;;22.87;18.33;;;;;;;;;;5076282;28;20153;-71
2023/09/19 02:17:48;;;;;;;18.67;16.67;;;;;;;;;;5075427;28;20592;-71
2023/09/19 02:20:16;;;;;;;19.43;15.33;;;;;;;;;;5075984;28;20174;-71
2023/09/19 02:22:44;;;;;;;17.53;15.00;;;;;;;;;;5076295;28;20225;-70
2023/09/19 02:25:10;;;;;;;21.07;13.90;;;;;;;;;;5076368;28;20213;-70
2023/09/19 02:31:31;;;;;;;12.63;11.33;;;;;;;;;;5076086;28;20153;-71
2023/09/19 02:34:16;;;;;;;11.53;9.40;;;;;;;;;;5058625;28;20178;-70
2023/09/19 02:40:43;;;;;;;8.90;7.17;;;;;;;;;;5075821;28;20180;-71
2023/09/19 02:43:10;;;;;;;8.23;7.00;;;;;;;;;;5058151;28;20190;-71
2023/09/19 02:49:30;;;;;;;9.80;6.40;;;;;;;;;;5075641;28;20154;-70
2023/09/19 02:51:58;;;;;;;8.03;5.90;;;;;;;;;;5057845;28;20694;-70
2023/09/19 02:54:25;;;;;;;8.90;6.40;;;;;;;;;;5074657;28;20227;-71
2023/09/19 02:56:53;;;;;;;7.77;5.97;;;;;;;;;;5057371;28;20218;-71
2023/09/19 03:03:39;;;;;;;8.47;5.30;;;;;;;;;;5055333;28;20189;-70
2023/09/19 03:06:08;;;;;;;9.10;5.50;;;;;;;;;;5055331;28;20660;-71
2023/09/19 03:08:36;;;;;;;7.23;5.37;;;;;;;;;;5054158;28;20183;-71
2023/09/19 03:11:03;;;;;;;7.00;4.90;;;;;;;;;;5037891;28;20538;-71
2023/09/19 03:13:54;;;;;;;7.17;4.83;;;;;;;;;;5024276;28;20249;-71
2023/09/19 03:16:21;;;;;;;8.80;4.60;;;;;;;;;;5038106;28;20573;-70
2023/09/19 03:18:52;;;;;;;8.87;5.33;;;;;;;;;;5037901;28;20207;-71
2023/09/19 03:21:21;;;;;;;7.50;4.87;;;;;;;;;;5039113;28;20243;-77
2023/09/19 03:27:49;;;;;;;8.50;5.20;;;;;;;;;;5057110;28;20157;-88
2023/09/19 03:34:22;;;;;;;6.30;4.53;;;;;;;;;;5054377;28;20664;-77
2023/09/19 03:36:51;;;;;;;5.77;4.40;;;;;;;;;;5039786;28;20198;-87
2023/09/19 03:43:28;;;;;;;8.50;4.63;;;;;;;;;;5058077;28;20181;-87
2023/09/19 03:45:55;;;;;;;5.93;4.00;;;;;;;;;;5039515;28;20213;-80
2023/09/19 03:52:16;;;;;;;8.47;4.53;;;;;;;;;;5054798;28;20253;-80
2023/09/19 03:54:44;;;;;;;5.73;4.23;;;;;;;;;;5037980;28;20640;-79
2023/09/19 03:57:12;;;;;;;6.93;4.10;;;;;;;;;;5039468;28;20226;-81
2023/09/19 04:03:47;;;;;;;7.47;4.53;;;;;;;;;;5057985;28;20158;-79
2023/09/19 04:10:17;;;;;;;6.13;4.40;;;;;;;;;;5046920;28;20196;-86
2023/09/19 04:16:44;;;;;;;5.77;4.17;;;;;;;;;;5054226;28;20149;-74
2023/09/19 04:19:11;;;;;;;6.93;4.50;;;;;;;;;;5036452;28;20206;-74
2023/09/19 04:21:38;;;;;;;8.27;5.10;;;;;;;;;;5020050;28;20294;-75
2023/09/19 04:24:05;;;;;;;6.80;4.60;;;;;;;;;;5036726;28;20187;-75
2023/09/19 04:26:32;;;;;;;6.87;4.30;;;;;;;;;;5036233;28;20503;-75
2023/09/19 04:28:58;;;;;;;6.73;4.30;;;;;;;;;;5019831;28;20533;-75
2023/09/19 04:31:25;;;;;;;6.10;4.40;;;;;;;;;;5054502;28;20269;-74
2023/09/19 04:33:52;;;;;;;5.73;4.20;;;;;;;;;;5053197;28;20561;-74
2023/09/19 04:36:22;;;;;;;8.47;4.87;;;;;;;;;;5054320;28;20193;-74
2023/09/19 04:39:04;;;;;;;8.07;4.77;;;;;;;;;;5021961;28;20210;-77
2023/09/19 04:41:31;;;;;;;7.13;4.70;;;;;;;;;;5053934;28;20292;-77
2023/09/19 04:43:58;;;;;;;7.73;4.50;;;;;;;;;;5054672;28;20183;-77
2023/09/19 04:46:25;;;;;;;7.97;5.03;;;;;;;;;;5019678;28;20269;-76
2023/09/19 04:48:52;;;;;;;9.30;4.70;;;;;;;;;;5019872;28;20197;-77
2023/09/19 04:51:20;;;;;;;6.17;4.47;;;;;;;;;;5019850;28;20202;-78
2023/09/19 04:53:50;;;;;;;7.00;4.80;;;;;;;;;;5053972;28;20186;-77
2023/09/19 04:56:17;;;;;;;8.73;5.00;;;;;;;;;;5036293;28;20225;-77
2023/09/19 04:58:44;;;;;;;8.27;5.33;;;;;;;;;;5053807;28;20207;-77
2023/09/19 05:05:16;;;;;;;6.53;5.10;;;;;;;;;;5064674;28;20204;-76
2023/09/19 05:07:49;;;;;;;8.97;5.53;;;;;;;;;;5040029;28;20636;-73
2023/09/19 05:10:19;;;;;;;8.00;4.60;;;;;;;;;;5056460;28;20190;-73
2023/09/19 05:12:48;;;;;;;9.50;5.30;;;;;;;;;;5056163;28;20189;-73
2023/09/19 05:19:11;;;;;;;7.20;4.07;;;;;;;;;;5073942;28;20269;-74
2023/09/19 05:25:39;;;;;;;9.93;4.57;;;;;;;;;;5073823;28;20545;-72
2023/09/19 05:28:14;;;;;;;7.10;4.50;;;;;;;;;;5073770;28;20194;-72
2023/09/19 05:34:40;;;;;;;9.70;4.53;;;;;;;;;;5074449;28;20168;-74
2023/09/19 05:37:26;;;;;;;8.03;4.63;;;;;;;;;;5043109;28;20196;-74
2023/09/19 05:43:54;;;;;;;7.10;3.90;;;;;;;;;;5074381;28;20200;-73
2023/09/19 05:46:23;;;;;;;10.60;4.70;;;;;;;;;;5058458;28;20243;-74
2023/09/19 05:52:58;;;;;;;7.77;4.63;;;;;;;;;;5078015;28;20575;-74
2023/09/19 05:55:28;;;;;;;6.20;4.10;;;;;;;;;;5028025;28;20178;-74
2023/09/19 05:57:58;;;;;;;7.10;4.50;;;;;;;;;;5044163;28;20190;-74
2023/09/19 06:00:31;;;;;;;8.50;4.53;;;;;;;;;;5027149;28;20190;-75
2023/09/19 06:03:08;;;;;;;6.97;5.03;;;;;;;;;;5046933;28;20187;-74
2023/09/19 06:05:40;;;;;;;7.20;5.50;;;;;;;;;;5077735;28;20239;-74
2023/09/19 06:08:14;;;;;;;9.70;5.70;;;;;;;;;;5061020;28;20200;-74
2023/09/19 06:10:48;;;;;;;8.63;5.87;;;;;;;;;;5061367;28;20569;-74
2023/09/19 06:13:26;;;;;;;9.03;6.30;;;;;;;;;;5044502;28;20193;-73
2023/09/19 06:16:04;;;;;;;8.60;7.00;;;;;;;;;;5061516;28;20219;-75
2023/09/19 06:18:38;;;;;;;9.50;6.27;;;;;;;;;;5060339;28;20585;-74
2023/09/19 06:21:13;;;;;;;11.63;7.10;;;;;;;;;;5076967;28;20497;-74
2023/09/19 06:23:46;;;;;;;8.23;6.63;;;;;;;;;;5061176;28;20178;-74
2023/09/19 06:26:19;;;;;;;12.07;7.23;;;;;;;;;;5077028;28;20536;-74
2023/09/19 06:32:49;;;;;;;9.47;7.07;;;;;;;;;;5077245;28;20169;-74
2023/09/19 06:35:22;;;;;;;8.77;6.50;;;;;;;;;;5043192;28;20186;-73
2023/09/19 06:41:58;;;;;;;7.83;6.47;;;;;;;;;;5077064;28;20212;-73
2023/09/19 06:44:31;;;;;;;7.50;6.40;;;;;;;;;;5059499;28;20194;-73
2023/09/19 06:47:09;;;;;;;8.97;6.80;;;;;;;;;;5059458;28;20167;-73
2023/09/19 06:49:39;;;;;;;8.63;5.93;;;;;;;;;;5060182;28;20159;-74
2023/09/19 06:52:07;;;;;;;7.67;6.50;;;;;;;;;;5059403;28;20213;-74
2023/09/19 06:54:36;;;;;;;9.57;6.60;;;;;;;;;;5059459;28;20588;-75
2023/09/19 06:57:09;;;;;;;8.37;6.23;;;;;;;;;;5057596;28;20254;-74
2023/09/19 06:59:44;;;;;;;6.60;5.90;;;;;;;;;;5060727;28;20193;-74
2023/09/19 07:06:10;;;;;;;8.37;6.30;;;;;;;;;;5076708;28;20168;-74
2023/09/19 07:08:57;;;;;;;8.20;6.07;;;;;;;;;;5062865;28;20224;-74
2023/09/19 07:11:30;;;;;;;8.87;6.60;;;;;;;;;;5076982;28;20186;-74
2023/09/19 07:14:23;;;;;;;10.10;6.27;;;;;;;;;;5029827;28;20247;-75
2023/09/19 07:17:01;;;;;;;7.80;6.13;;;;;;;;;;5058455;28;20193;-74
2023/09/19 07:19:50;;;;;;;6.83;5.70;;;;;;;;;;5058510;28;20292;-74
2023/09/19 07:22:23;;;;;;;8.93;6.30;;;;;;;;;;5058074;28;20198;-74
2023/09/19 07:24:55;;;;;;;6.47;5.23;;;;;;;;;;5059700;28;20553;-73
2023/09/19 07:27:27;;;;;;;8.57;6.13;;;;;;;;;;5043046;28;20261;-74
2023/09/19 07:29:56;;;;;;;11.17;6.43;;;;;;;;;;5042354;28;20186;-75
2023/09/19 07:32:26;;;;;;;8.10;6.00;;;;;;;;;;5041513;28;20194;-74
2023/09/19 07:34:57;;;;;;;8.40;6.10;;;;;;;;;;5042169;28;20206;-74
2023/09/19 07:41:22;;;;;;;8.50;5.87;;;;;;;;;;5075635;28;20160;-74
2023/09/19 07:47:58;;;;;;;8.80;5.03;;;;;;;;;;5075602;28;20169;-74
2023/09/19 07:50:28;;;;;;;6.77;5.67;;;;;;;;;;5074483;28;20189;-74
2023/09/19 07:52:58;;;;;;;8.17;5.80;;;;;;;;;;5041563;28;20190;-74
2023/09/19 07:55:26;;;;;;;6.70;5.70;;;;;;;;;;5057816;28;20196;-74
2023/09/19 07:57:59;;;;;;;8.50;5.70;;;;;;;;;;5041497;28;20281;-74
2023/09/19 08:00:27;;;;;;;10.10;5.80;;;;;;;;;;5075376;28;20507;-74
2023/09/19 08:02:58;;;;;;;7.30;5.23;;;;;;;;;;5075782;28;20231;-74
2023/09/19 08:05:36;;;;;;;6.90;5.33;;;;;;;;;;5042149;28;20190;-73
2023/09/19 08:12:04;;;;;;;5.50;4.20;;;;;;;;;;5055192;28;20233;-73
2023/09/19 08:18:33;;;;;;;5.97;4.00;;;;;;;;;;5055002;28;20189;-73
2023/09/19 08:21:11;;;;;;;6.17;3.80;;;;;;;;;;5053895;28;20221;-73
2023/09/19 08:23:45;;;;;;;5.30;3.87;;;;;;;;;;5038908;28;20199;-73
2023/09/19 08:26:32;;;;;;;6.53;4.10;;;;;;;;;;5040258;28;20165;-74
2023/09/19 08:29:04;;;;;;;6.40;3.80;;;;;;;;;;5054565;28;20179;-73
2023/09/19 08:31:34;;;;;;;4.80;3.03;;;;;;;;;;5053563;28;20187;-73
2023/09/19 08:34:05;;;;;;;4.73;3.37;;;;;;;;;;5021331;28;20198;-74
2023/09/19 08:36:57;;;;;;;4.50;3.20;;;;;;;;;;5036745;28;20179;-74
2023/09/19 08:39:25;;;;;;;5.23;3.03;;;;;;;;;;5036994;28;20194;-73
2023/09/19 08:46:05;;;;;;;4.70;3.10;;;;;;;;;;5056482;28;20177;-73
2023/09/19 08:48:53;;;;;;;3.50;2.70;;;;;;;;;;5057063;28;20157;-73
2023/09/19 08:51:27;;;;;;;5.93;2.87;;;;;;;;;;5038816;28;20525;-74
2023/09/19 08:53:59;;;;;;;4.23;2.80;;;;;;;;;;5039222;28;20192;-73
2023/09/19 08:56:29;;;;;;;5.13;3.07;;;;;;;;;;5037631;28;20222;-74
2023/09/19 08:59:13;;;;;;;4.53;2.40;;;;;;;;;;5046127;28;20178;-73
2023/09/19 09:01:41;;;;;;;4.13;2.80;;;;;;;;;;5056524;28;20239;-74
2023/09/19 09:04:12;;;;;;;4.20;2.20;;;;;;;;;;5072873;28;20176;-74
2023/09/19 09:06:40;;;;;;;3.13;2.30;;;;;;;;;;5056810;28;20581;-73
2023/09/19 09:09:09;;;;;;;4.80;2.10;;;;;;;;;;5056366;28;20199;-75
2023/09/19 09:15:38;;;;;;;3.27;1.80;;;;;;;;;;5073925;28;20576;-73
2023/09/19 09:22:08;;;;;;;4.77;2.53;;;;;;;;;;5077814;28;20213;-75
2023/09/19 09:24:58;;;;;;;4.47;2.20;;;;;;;;;;5032157;28;20182;-74
2023/09/19 09:27:25;;;;;;;4.93;2.60;;;;;;;;;;5060724;28;20178;-75
2023/09/19 09:29:54;;;;;;;6.13;2.60;;;;;;;;;;5060639;28;20515;-76
2023/09/19 09:36:37;;;;;;;5.40;2.20;;;;;;;;;;5098396;28;20204;-75
2023/09/19 09:39:24;;;;;;;4.03;2.50;;;;;;;;;;5063314;28;20238;-74
2023/09/19 09:49:14;;;;;;;2.60;1.80;;;;;;;;;;5076947;28;20183;-75
2023/09/19 09:52:16;;;;;;;3.83;1.80;;;;;;;;;;5059345;28;20564;-76
2023/09/19 09:55:00;;;;;;;3.60;1.70;;;;;;;;;;5057134;28;20210;-74
2023/09/19 09:57:29;;;;;;;3.53;1.60;;;;;;;;;;5026425;28;20253;-75
2023/09/19 10:00:15;;;;;;;3.47;1.93;;;;;;;;;;5059493;28;20179;-74
2023/09/19 10:02:45;;;;;;;3.27;1.70;;;;;;;;;;5059675;28;20264;-74
2023/09/19 10:08:08;;;;;;;5.37;1.97;;;;;;;;;;5039187;28;20190;-74
2023/09/19 10:13:07;;;;;;;2.93;1.70;;;;;;;;;;5055977;28;20500;-74
2023/09/19 10:15:36;;;;;;;2.53;1.50;;;;;;;;;;5038991;28;20281;-73
2023/09/19 10:18:08;;;;;;;2.33;1.73;;;;;;;;;;5055688;28;20210;-73
2023/09/19 10:20:37;;;;;;;3.13;1.60;;;;;;;;;;5044524;28;20664;-74
2023/09/19 10:23:10;;;;;;;3.20;1.57;;;;;;;;;;5055338;28;20214;-74
2023/09/19 10:25:38;;;;;;;2.97;1.60;;;;;;;;;;5055758;28;20591;-74
2023/09/19 10:28:10;;;;;;;2.40;1.50;;;;;;;;;;5055773;28;20514;-75
2023/09/19 10:30:44;;;;;;;3.23;1.40;;;;;;;;;;5056319;28;20225;-74
2023/09/19 10:33:13;;;;;;;2.90;1.57;;;;;;;;;;5054670;28;20163;-75
2023/09/19 10:35:43;;;;;;;4.90;1.70;;;;;;;;;;5036396;28;20210;-75
2023/09/19 10:38:11;;;;;;;2.47;1.37;;;;;;;;;;5039510;28;20195;-75
2023/09/19 10:41:00;;;;;;;2.47;1.47;;;;;;;;;;5056702;28;20154;-76
2023/09/19 10:43:30;;;;;;;2.00;1.60;;;;;;;;;;5055348;28;20215;-75
2023/09/19 10:46:06;;;;;;;3.97;1.50;;;;;;;;;;5055112;28;20191;-74
2023/09/19 10:48:33;;;;;;;3.30;1.57;;;;;;;;;;5056514;28;20178;-74
2023/09/19 10:51:06;;;;;;;4.23;1.80;;;;;;;;;;5038155;28;20199;-74
2023/09/19 10:53:53;;;;;;;2.30;1.40;;;;;;;;;;5038200;28;20223;-74
2023/09/19 10:56:27;;;;;;;2.43;1.70;;;;;;;;;;5055906;28;20222;-75
2023/09/19 10:59:13;;;;;;;2.93;1.67;;;;;;;;;;5038551;28;20192;-75
2023/09/19 11:01:41;;;;;;;3.67;1.70;;;;;;;;;;5039071;28;20209;-74
2023/09/19 11:04:26;;;;;;;2.03;1.60;;;;;;;;;;5038059;28;20199;-73
2023/09/19 11:07:12;;;;;;;3.40;1.67;;;;;;;;;;5054904;28;20195;-74
2023/09/19 11:10:10;;;;;;;3.83;1.90;;;;;;;;;;5037924;28;20191;-74
2023/09/19 11:12:56;;;;;;;2.37;1.70;;;;;;;;;;5055016;28;20163;-75
2023/09/19 11:15:43;;;;;;;2.80;1.70;;;;;;;;;;5038099;28;20706;-73
2023/09/19 11:18:30;;;;;;;3.03;1.67;;;;;;;;;;5055761;28;20207;-75
2023/09/19 11:21:21;;;;;;;3.20;1.70;;;;;;;;;;5038430;28;20525;-74
2023/09/19 11:24:09;;;;;;;3.20;1.80;;;;;;;;;;5054066;28;20285;-75
2023/09/19 11:26:53;;;;;;;2.83;2.00;;;;;;;;;;5054334;28;20173;-74
2023/09/19 11:29:33;;;;;;;2.90;1.77;;;;;;;;;;5037398;28;20258;-74
2023/09/19 11:32:00;;;;;;;2.30;1.60;;;;;;;;;;5038453;28;20187;-74
2023/09/19 11:34:37;;;;;;;3.87;1.80;;;;;;;;;;5055049;28;20287;-75
2023/09/19 11:41:26;;;;;;;3.30;1.93;;;;;;;;;;5054939;28;20553;-74
2023/09/19 11:43:58;;;;;;;4.23;1.83;;;;;;;;;;5054401;28;20514;-74
2023/09/19 11:46:26;;;;;;;4.73;1.60;;;;;;;;;;5037309;28;20182;-75
2023/09/19 11:48:53;;;;;;;5.03;2.00;;;;;;;;;;5037314;28;20194;-74
2023/09/19 11:51:26;;;;;;;3.90;2.00;;;;;;;;;;5036954;28;20293;-74
2023/09/19 11:54:21;;;;;;;3.57;1.90;;;;;;;;;;5055063;28;20161;-74
2023/09/19 11:56:50;;;;;;;3.27;1.90;;;;;;;;;;5036961;28;20230;-75
2023/09/19 11:59:23;;;;;;;4.30;2.17;;;;;;;;;;5037169;28;20272;-74
2023/09/19 12:01:54;;;;;;;3.53;1.80;;;;;;;;;;5037741;28;20172;-73
2023/09/19 12:04:44;;;;;;;3.13;2.00;;;;;;;;;;5040129;28;20588;-74
2023/09/19 12:07:15;;;;;;;4.80;1.70;;;;;;;;;;5038673;28;20190;-75
2023/09/19 12:10:04;;;;;;;3.50;1.70;;;;;;;;;;5039648;28;20167;-73
2023/09/19 12:12:32;;;;;;;2.87;1.50;;;;;;;;;;5037104;28;20213;-74
2023/09/19 12:14:59;;;;;;;2.40;1.47;;;;;;;;;;5036725;28;20198;-74
2023/09/19 12:17:36;;;;;;;4.30;1.50;;;;;;;;;;5036597;28;20672;-74
2023/09/19 12:20:16;;;;;;;3.17;1.60;;;;;;;;;;5036995;28;20266;-74
2023/09/19 12:22:44;;;;;;;2.90;1.60;;;;;;;;;;5056945;28;20273;-74
2023/09/19 12:25:11;;;;;;;4.77;1.90;;;;;;;;;;5056783;28;20204;-73
2023/09/19 12:27:44;;;;;;;3.87;1.70;;;;;;;;;;5074276;28;20186;-74
2023/09/19 12:30:14;;;;;;;4.37;1.57;;;;;;;;;;5075204;28;20225;-75
2023/09/19 12:32:53;;;;;;;4.03;2.00;;;;;;;;;;5073426;28;20174;-73
2023/09/19 12:35:31;;;;;;;3.13;1.50;;;;;;;;;;5073409;28;20187;-75
2023/09/19 12:37:58;;;;;;;2.47;1.43;;;;;;;;;;5072374;28;20181;-75
2023/09/19 12:40:28;;;;;;;3.60;1.70;;;;;;;;;;5040570;28;20185;-74
2023/09/19 12:42:58;;;;;;;3.20;1.43;;;;;;;;;;5023548;28;20232;-75
2023/09/19 12:45:25;;;;;;;2.17;1.60;;;;;;;;;;5056141;28;20189;-74
2023/09/19 12:48:11;;;;;;;3.23;1.57;;;;;;;;;;5073668;28;20694;-74
2023/09/19 12:50:58;;;;;;;3.33;1.87;;;;;;;;;;5074954;28;20162;-74
2023/09/19 12:57:25;;;;;;;5.83;1.73;;;;;;;;;;5074402;28;20286;-74
2023/09/19 13:04:18;;;;;;;3.43;1.50;;;;;;;;;;5073715;28;20192;-73
2023/09/19 13:06:48;;;;;;;3.53;1.60;;;;;;;;;;5052475;28;20199;-73
2023/09/19 13:13:22;;;;;;;3.00;1.50;;;;;;;;;;5073662;28;20187;-74
2023/09/19 13:16:14;;;;;;;2.30;1.17;;;;;;;;;;5074157;28;20238;-73
2023/09/19 13:18:47;;;;;;;2.97;1.60;;;;;;;;;;5024051;28;20215;-73
2023/09/19 13:21:22;;;;;;;2.33;1.43;;;;;;;;;;5039120;28;20190;-73
2023/09/19 13:23:50;;;;;;;3.67;1.40;;;;;;;;;;5055926;28;20202;-73
2023/09/19 13:30:11;;;;;;;3.50;1.33;;;;;;;;;;5073524;28;20179;-73
2023/09/19 13:32:40;;;;;;;3.20;1.43;;;;;;;;;;5056130;28;20620;-73
2023/09/19 13:35:09;;;;;;;2.00;1.33;;;;;;;;;;5039808;28;20541;-73
2023/09/19 13:37:40;;;;;;;1.60;1.30;;;;;;;;;;5073798;28;20226;-73
2023/09/19 13:40:08;;;;;;;3.57;1.50;;;;;;;;;;5056013;28;20180;-73
2023/09/19 13:42:36;;;;;;;4.57;1.67;;;;;;;;;;5073912;28;20265;-73
2023/09/19 13:45:04;;;;;;;2.73;1.50;;;;;;;;;;5038680;28;20234;-73
2023/09/19 13:47:32;;;;;;;3.67;1.60;;;;;;;;;;5055179;28;20535;-74
2023/09/19 13:50:01;;;;;;;5.43;2.00;;;;;;;;;;5056047;28;20192;-73
2023/09/19 13:52:30;;;;;;;2.33;1.87;;;;;;;;;;5073257;28;20241;-73
2023/09/19 13:55:01;;;;;;;2.47;1.70;;;;;;;;;;5056202;28;20192;-73
2023/09/19 14:01:29;;;;;;;3.80;1.50;;;;;;;;;;5073184;28;20235;-73
2023/09/19 14:07:57;;;;;;;2.60;1.70;;;;;;;;;;5076354;28;20161;-73
2023/09/19 14:10:25;;;;;;;2.40;1.57;;;;;;;;;;5042587;28;20603;-74
2023/09/19 14:12:58;;;;;;;3.00;1.63;;;;;;;;;;5042965;28;20202;-74
2023/09/19 14:15:29;;;;;;;4.07;1.67;;;;;;;;;;5059799;28;20216;-73
2023/09/19 14:18:15;;;;;;;3.63;1.63;;;;;;;;;;5045160;28;20645;-74
2023/09/19 14:20:42;;;;;;;4.03;1.70;;;;;;;;;;5059249;28;20184;-73
2023/09/19 14:23:09;;;;;;;2.83;1.60;;;;;;;;;;5059593;28;20182;-73
2023/09/19 14:25:38;;;;;;;2.10;1.60;;;;;;;;;;5043981;28;20213;-74
2023/09/19 14:28:07;;;;;;;2.90;1.70;;;;;;;;;;5059097;28;20252;-74
2023/09/19 14:30:37;;;;;;;6.27;1.60;;;;;;;;;;5043396;28;20240;-73
2023/09/19 14:33:07;;;;;;;4.13;1.77;;;;;;;;;;5058628;28;20193;-73
2023/09/19 14:35:37;;;;;;;3.07;1.67;;;;;;;;;;5076781;28;20178;-73
2023/09/19 14:38:06;;;;;;;3.63;1.93;;;;;;;;;;5059182;28;20170;-74
2023/09/19 14:40:33;;;;;;;2.60;1.40;;;;;;;;;;5059378;28;20186;-73
2023/09/19 14:43:03;;;;;;;3.67;1.53;;;;;;;;;;5058163;28;20197;-73
2023/09/19 14:45:31;;;;;;;4.83;1.67;;;;;;;;;;5076455;28;20239;-73
2023/09/19 14:48:05;;;;;;;3.53;1.90;;;;;;;;;;5058629;28;20205;-73
2023/09/19 14:50:40;;;;;;;3.47;1.80;;;;;;;;;;5044683;28;20170;-72
2023/09/19 14:53:13;;;;;;;4.03;1.70;;;;;;;;;;5058575;28;20656;-76
2023/09/19 14:55:44;;;;;;;8.00;2.10;;;;;;;;;;5058655;28;20210;-77
2023/09/19 14:58:12;;;;;;;4.70;2.23;;;;;;;;;;5050612;28;20187;-77
2023/09/19 15:00:39;;;;;;;5.07;2.27;;;;;;;;;;5074926;28;20204;-76
2023/09/19 15:03:24;;;;;;;5.87;2.10;;;;;;;;;;5060845;28;20197;-76
2023/09/19 15:05:58;;;;;;;7.17;2.00;;;;;;;;;;5076902;28;20189;-77
2023/09/19 15:08:25;;;;;;;5.27;2.00;;;;;;;;;;5059362;28;20190;-79
2023/09/19 15:10:53;;;;;;;4.83;2.10;;;;;;;;;;5045104;28;20204;-80
2023/09/19 15:13:20;;;;;;;3.90;1.83;;;;;;;;;;5044957;28;20691;-79
2023/09/19 15:15:48;;;;;;;5.73;2.00;;;;;;;;;;5076760;28;20236;-80
2023/09/19 15:18:16;;;;;;;5.07;2.00;;;;;;;;;;5042561;28;20206;-82
2023/09/19 15:20:44;;;;;;;4.77;1.97;;;;;;;;;;5042998;28;20194;-81
2023/09/19 15:23:13;;;;;;;5.20;1.97;;;;;;;;;;5058267;28;20284;-80
2023/09/19 15:25:40;;;;;;;5.70;2.40;;;;;;;;;;5059314;28;20294;-82
2023/09/19 15:28:09;;;;;;;3.83;2.17;;;;;;;;;;5060591;28;20194;-81
2023/09/19 15:30:38;;;;;;;6.00;2.60;;;;;;;;;;5044403;28;20162;-79
2023/09/19 15:33:06;;;;;;;2.87;1.90;;;;;;;;;;5059093;28;20197;-80
2023/09/19 15:35:33;;;;;;;6.17;1.97;;;;;;;;;;5054418;28;20237;-81
2023/09/19 15:38:00;;;;;;;3.93;1.70;;;;;;;;;;5038040;28;20183;-82
2023/09/19 15:40:27;;;;;;;4.20;1.50;;;;;;;;;;5054983;28;20198;-82
2023/09/19 15:42:56;;;;;;;3.97;2.00;;;;;;;;;;5039021;28;20217;-85
2023/09/19 15:45:23;;;;;;;4.77;1.87;;;;;;;;;;5056121;28;20207;-78
2023/09/19 15:47:50;;;;;;;4.03;2.03;;;;;;;;;;5057906;28;20214;-81
2023/09/19 15:50:17;;;;;;;4.27;1.60;;;;;;;;;;5055101;28;20225;-78
2023/09/19 15:53:02;;;;;;;5.10;1.90;;;;;;;;;;5040422;28;20181;-79
2023/09/19 15:55:29;;;;;;;5.27;1.73;;;;;;;;;;5039063;28;20194;-78
2023/09/19 15:57:56;;;;;;;2.83;1.50;;;;;;;;;;5037647;28;20190;-80
2023/09/19 16:00:24;;;;;;;3.73;1.47;;;;;;;;;;5055523;28;20187;-79
2023/09/19 16:02:54;;;;;;;5.37;1.63;;;;;;;;;;5039471;28;20190;-72
2023/09/19 16:05:23;;;;;;;3.83;1.77;;;;;;;;;;5037021;28;20220;-71
2023/09/19 16:07:51;;;;;;;3.90;1.70;;;;;;;;;;5021464;28;20182;-72
2023/09/19 16:10:18;;;;;;;2.53;1.60;;;;;;;;;;5054848;28;20183;-72
2023/09/19 16:12:45;;;;;;;7.20;2.60;;;;;;;;;;5053839;28;20190;-73
2023/09/19 16:15:15;;;;;;;5.40;1.77;;;;;;;;;;5055447;28;20201;-72
2023/09/19 16:17:42;;;;;;;4.60;2.37;;;;;;;;;;5053875;28;20222;-72
2023/09/19 16:24:03;;;;;;;5.87;2.53;;;;;;;;;;5054251;28;20241;-71
2023/09/19 16:26:30;;;;;;;5.10;2.53;;;;;;;;;;5055526;28;20190;-74
2023/09/19 16:29:01;;;;;;;4.70;2.20;;;;;;;;;;5036722;28;20218;-73
2023/09/19 16:31:30;;;;;;;6.03;2.57;;;;;;;;;;5022883;28;20174;-75
2023/09/19 16:34:00;;;;;;;5.63;2.80;;;;;;;;;;5038365;28;20197;-75
2023/09/19 16:36:31;;;;;;;4.23;2.57;;;;;;;;;;5037505;28;20526;-75
2023/09/19 16:39:04;;;;;;;7.27;3.00;;;;;;;;;;5022727;28;20189;-75
2023/09/19 16:41:51;;;;;;;4.60;2.33;;;;;;;;;;5036852;28;20174;-73
2023/09/19 16:44:20;;;;;;;4.77;2.30;;;;;;;;;;5054443;28;20198;-78
2023/09/19 16:46:48;;;;;;;7.40;2.93;;;;;;;;;;5055448;28;20255;-80
2023/09/19 16:49:16;;;;;;;5.27;2.83;;;;;;;;;;5053294;28;20248;-78
2023/09/19 16:51:45;;;;;;;11.80;4.60;;;;;;;;;;5040006;28;20202;-78
2023/09/19 16:58:07;;;;;;;9.27;5.20;;;;;;;;;;5055785;28;20838;-80
2023/09/19 17:00:35;;;;;;;9.60;3.83;;;;;;;;;;5056076;28;20221;-79
2023/09/19 17:03:06;;;;;;;7.83;3.50;;;;;;;;;;5039582;28;20278;-80
2023/09/19 17:05:34;;;;;;;12.77;3.80;;;;;;;;;;5023520;28;20692;-80
2023/09/19 17:08:01;;;;;;;8.80;4.20;;;;;;;;;;5057521;28;20691;-80
2023/09/19 17:10:34;;;;;;;8.30;4.77;;;;;;;;;;5038265;28;20626;-79
2023/09/19 17:13:03;;;;;;;8.47;4.90;;;;;;;;;;5053276;28;20242;-79
2023/09/19 17:15:31;;;;;;;7.07;3.30;;;;;;;;;;5037372;28;20552;-79
2023/09/19 17:18:00;;;;;;;9.70;4.50;;;;;;;;;;5022371;28;20207;-79
2023/09/19 17:20:27;;;;;;;9.73;3.73;;;;;;;;;;5020694;28;20216;-81
2023/09/19 17:22:54;;;;;;;11.47;3.97;;;;;;;;;;5036333;28;20198;-75
2023/09/19 17:25:22;;;;;;;8.40;3.90;;;;;;;;;;5054127;28;20213;-75
2023/09/19 17:27:49;;;;;;;8.43;3.50;;;;;;;;;;5052346;28;20533;-75
2023/09/19 17:30:17;;;;;;;7.70;3.60;;;;;;;;;;5036467;28;20206;-75
2023/09/19 17:32:45;;;;;;;6.83;2.90;;;;;;;;;;5035974;28;20183;-75
2023/09/19 17:35:12;;;;;;;6.30;3.27;;;;;;;;;;5052428;28;20194;-75
2023/09/19 17:37:39;;;;;;;5.73;2.50;;;;;;;;;;5034891;28;20705;-75
2023/09/19 17:40:11;;;;;;;6.60;2.47;;;;;;;;;;5035764;28;20209;-75
2023/09/19 17:42:56;;;;;;;5.13;2.40;;;;;;;;;;5039298;28;20170;-75
2023/09/19 17:45:26;;;;;;;6.87;2.50;;;;;;;;;;5039415;28;20206;-75
2023/09/19 17:47:54;;;;;;;6.20;2.80;;;;;;;;;;5039736;28;20175;-76
2023/09/19 17:50:21;;;;;;;4.77;2.60;;;;;;;;;;5039680;28;20208;-77
2023/09/19 17:52:51;;;;;;;5.17;2.57;;;;;;;;;;5039869;28;20554;-77
2023/09/19 17:55:18;;;;;;;6.10;2.83;;;;;;;;;;5057873;28;20182;-76
2023/09/19 17:57:47;;;;;;;6.40;2.63;;;;;;;;;;5056680;28;20219;-81
2023/09/19 18:00:18;;;;;;;5.13;2.37;;;;;;;;;;5040330;28;20159;-76
2023/09/19 18:02:45;;;;;;;9.67;3.43;;;;;;;;;;5056105;28;20218;-76
2023/09/19 18:05:16;;;;;;;7.77;3.67;;;;;;;;;;5039821;28;20305;-81
2023/09/19 18:11:42;;;;;;;8.73;3.67;;;;;;;;;;5056689;28;20629;-79
2023/09/19 18:14:09;;;;;;;13.33;4.70;;;;;;;;;;5057282;28;20187;-77
2023/09/19 18:16:56;;;;;;;8.23;4.37;;;;;;;;;;5042182;28;20169;-78
2023/09/19 18:19:24;;;;;;;9.70;4.53;;;;;;;;;;5056296;28;20249;-84
2023/09/19 18:21:51;;;;;;;7.50;3.83;;;;;;;;;;5026100;28;20589;-84
2023/09/19 18:24:18;;;;;;;12.17;4.87;;;;;;;;;;5060162;28;20220;-85
2023/09/19 18:26:45;;;;;;;9.50;4.33;;;;;;;;;;5043783;28;20187;-85
2023/09/19 18:36:57;;;;;;;9.23;4.33;;;;;;;;;;5060671;28;20173;-83
2023/09/19 18:39:25;;;;;;;11.33;4.70;;;;;;;;;;5042300;28;20227;-80
2023/09/19 18:41:52;;;;;;;9.70;4.80;;;;;;;;;;5060040;28;20190;-84
2023/09/19 18:48:19;;;;;;;11.20;5.40;;;;;;;;;;5057104;28;20245;-77